sensor_id;sensor_type;location;lat;lon;timestamp;pressure;altitude;pressure_sealevel;temperature;humidity
12219;BME280;6172;42.646;23.344;2023-01-25T00:00:27;95725.78;;;-0.65;100.00
12219;BME280;6172;42.646;23.344;2023-01-25T00:02:54;95725.56;;;-0.52;100.00
12219;BME280;6172;42.646;23.344;2023-01-25T00:05:21;95730.63;;;-0.50;100.00
12219;BME280;6172;42.646;23.344;2023-01-25T00:07:48;95732.03;;;-0.44;100.00
12219;BME280;6172;42.646;23.344;2023-01-25T00:10:15;95735.28;;;-0.30;100.00
12219;BME280;6172;42.646;23.344;2023-01-25T00:12:44;95726.66;;;-0.36;100.00
12219;BME280;6172;42.646;23.344;2023-01-25T00:15:11;95716.97;;;-0.83;100.00
12219;BME280;6172;42.646;23.344;2023-01-25T00:17:39;95716.81;;;-0.95;100.00
12219;BME280;6172;42.646;23.344;2023-01-25T00:20:08;95722.63;;;-0.84;100.00
12219;BME280;6172;42.646;23.344;2023-01-25T00:22:37;95728.28;;;-0.77;100.00
12219;BME280;6172;42.646;23.344;2023-01-25T00:25:08;95729.25;;;-1.07;100.00
12219;BME280;6172;42.646;23.344;2023-01-25T00:27:39;95726.75;;;-0.95;100.00
12219;BME280;6172;42.646;23.344;2023-01-25T00:30:13;95729.09;;;-1.02;100.00
12219;BME280;6172;42.646;23.344;2023-01-25T00:32:47;95725.94;;;-1.21;100.00
12219;BME280;6172;42.646;23.344;2023-01-25T00:35:17;95721.38;;;-1.21;100.00
12219;BME280;6172;42.646;23.344;2023-01-25T00:37:46;95716.66;;;-1.32;100.00
12219;BME280;6172;42.646;23.344;2023-01-25T00:40:14;95735.84;;;-1.05;100.00
12219;BME280;6172;42.646;23.344;2023-01-25T00:42:42;95733.34;;;-1.10;100.00
12219;BME280;6172;42.646;23.344;2023-01-25T00:45:13;95737.41;;;-1.12;100.00
12219;BME280;6172;42.646;23.344;2023-01-25T00:47:40;95735.41;;;-1.07;100.00
12219;BME280;6172;42.646;23.344;2023-01-25T00:50:09;95735.84;;;-1.13;100.00
12219;BME280;6172;42.646;23.344;2023-01-25T00:52:36;95735.09;;;-1.05;100.00
12219;BME280;6172;42.646;23.344;2023-01-25T00:55:05;95732.56;;;-1.19;100.00
12219;BME280;6172;42.646;23.344;2023-01-25T00:57:34;95735.38;;;-1.24;100.00
12219;BME280;6172;42.646;23.344;2023-01-25T01:00:02;95739.47;;;-1.26;100.00
12219;BME280;6172;42.646;23.344;2023-01-25T01:02:31;95729.88;;;-1.19;100.00
12219;BME280;6172;42.646;23.344;2023-01-25T01:04:59;95733.66;;;-1.11;100.00
12219;BME280;6172;42.646;23.344;2023-01-25T01:07:26;95738.84;;;-1.06;100.00
12219;BME280;6172;42.646;23.344;2023-01-25T01:09:53;95738.53;;;-1.05;100.00
12219;BME280;6172;42.646;23.344;2023-01-25T01:12:20;95742.47;;;-1.02;100.00
12219;BME280;6172;42.646;23.344;2023-01-25T01:14:47;95738.38;;;-1.08;100.00
12219;BME280;6172;42.646;23.344;2023-01-25T01:17:15;95731.44;;;-1.09;100.00
12219;BME280;6172;42.646;23.344;2023-01-25T01:19:43;95732.69;;;-1.15;100.00
12219;BME280;6172;42.646;23.344;2023-01-25T01:22:11;95720.75;;;-1.18;100.00
12219;BME280;6172;42.646;23.344;2023-01-25T01:24:38;95734.78;;;-0.95;100.00
12219;BME280;6172;42.646;23.344;2023-01-25T01:27:06;95718.88;;;-1.17;100.00
12219;BME280;6172;42.646;23.344;2023-01-25T01:29:33;95725.94;;;-1.13;100.00
12219;BME280;6172;42.646;23.344;2023-01-25T01:32:00;95721.69;;;-1.22;100.00
12219;BME280;6172;42.646;23.344;2023-01-25T01:34:30;95717.94;;;-1.13;100.00
12219;BME280;6172;42.646;23.344;2023-01-25T01:37:01;95709.59;;;-1.11;100.00
12219;BME280;6172;42.646;23.344;2023-01-25T01:39:28;95694.00;;;-1.09;100.00
12219;BME280;6172;42.646;23.344;2023-01-25T01:41:55;95720.13;;;-0.98;100.00
12219;BME280;6172;42.646;23.344;2023-01-25T01:44:44;95710.22;;;-1.23;100.00
12219;BME280;6172;42.646;23.344;2023-01-25T01:47:14;95696.97;;;-1.28;100.00
12219;BME280;6172;42.646;23.344;2023-01-25T01:49:48;95705.00;;;-1.11;100.00
12219;BME280;6172;42.646;23.344;2023-01-25T01:52:22;95705.34;;;-0.87;100.00
12219;BME280;6172;42.646;23.344;2023-01-25T01:54:55;95702.19;;;-1.14;100.00
12219;BME280;6172;42.646;23.344;2023-01-25T01:57:25;95705.66;;;-1.05;100.00
12219;BME280;6172;42.646;23.344;2023-01-25T01:59:57;95697.16;;;-0.99;100.00
12219;BME280;6172;42.646;23.344;2023-01-25T02:02:26;95692.28;;;-0.88;100.00
12219;BME280;6172;42.646;23.344;2023-01-25T02:04:59;95695.53;;;-0.74;100.00
12219;BME280;6172;42.646;23.344;2023-01-25T02:07:35;95689.72;;;-0.85;100.00
12219;BME280;6172;42.646;23.344;2023-01-25T02:10:05;95708.94;;;-0.74;100.00
12219;BME280;6172;42.646;23.344;2023-01-25T02:12:32;95695.91;;;-1.18;100.00
12219;BME280;6172;42.646;23.344;2023-01-25T02:15:00;95696.66;;;-1.01;100.00
12219;BME280;6172;42.646;23.344;2023-01-25T02:17:30;95692.91;;;-1.17;100.00
12219;BME280;6172;42.646;23.344;2023-01-25T02:20:02;95690.06;;;-1.03;100.00
12219;BME280;6172;42.646;23.344;2023-01-25T02:22:38;95706.13;;;-1.37;100.00
12219;BME280;6172;42.646;23.344;2023-01-25T02:25:09;95707.06;;;-1.25;100.00
12219;BME280;6172;42.646;23.344;2023-01-25T02:27:41;95699.66;;;-1.36;100.00
12219;BME280;6172;42.646;23.344;2023-01-25T02:30:12;95701.81;;;-1.55;100.00
12219;BME280;6172;42.646;23.344;2023-01-25T02:32:51;95708.28;;;-1.48;100.00
12219;BME280;6172;42.646;23.344;2023-01-25T02:35:41;95705.00;;;-1.53;100.00
12219;BME280;6172;42.646;23.344;2023-01-25T02:38:09;95712.09;;;-1.32;100.00
12219;BME280;6172;42.646;23.344;2023-01-25T02:40:43;95702.19;;;-1.31;100.00
12219;BME280;6172;42.646;23.344;2023-01-25T02:43:11;95702.97;;;-1.31;100.00
12219;BME280;6172;42.646;23.344;2023-01-25T02:45:38;95697.47;;;-1.17;100.00
12219;BME280;6172;42.646;23.344;2023-01-25T02:48:06;95695.25;;;-1.32;100.00
12219;BME280;6172;42.646;23.344;2023-01-25T02:50:33;95696.69;;;-1.26;100.00
12219;BME280;6172;42.646;23.344;2023-01-25T02:52:59;95693.06;;;-1.05;100.00
12219;BME280;6172;42.646;23.344;2023-01-25T02:55:26;95693.38;;;-1.15;100.00
12219;BME280;6172;42.646;23.344;2023-01-25T02:57:55;95700.94;;;-1.00;100.00
12219;BME280;6172;42.646;23.344;2023-01-25T03:00:22;95702.03;;;-1.09;100.00
12219;BME280;6172;42.646;23.344;2023-01-25T03:02:50;95695.59;;;-1.08;100.00
12219;BME280;6172;42.646;23.344;2023-01-25T03:05:16;95697.44;;;-0.92;100.00
12219;BME280;6172;42.646;23.344;2023-01-25T03:07:43;95685.50;;;-0.86;100.00
12219;BME280;6172;42.646;23.344;2023-01-25T03:10:10;95697.75;;;-0.85;100.00
12219;BME280;6172;42.646;23.344;2023-01-25T03:12:37;95692.25;;;-0.80;100.00
12219;BME280;6172;42.646;23.344;2023-01-25T03:15:08;95695.41;;;-0.86;100.00
12219;BME280;6172;42.646;23.344;2023-01-25T03:17:35;95700.59;;;-0.73;100.00
12219;BME280;6172;42.646;23.344;2023-01-25T03:20:02;95683.47;;;-1.23;100.00
12219;BME280;6172;42.646;23.344;2023-01-25T03:22:30;95687.88;;;-1.01;100.00
12219;BME280;6172;42.646;23.344;2023-01-25T03:24:57;95687.88;;;-0.93;100.00
12219;BME280;6172;42.646;23.344;2023-01-25T03:27:24;95684.06;;;-0.92;100.00
12219;BME280;6172;42.646;23.344;2023-01-25T03:29:51;95684.72;;;-1.03;100.00
12219;BME280;6172;42.646;23.344;2023-01-25T03:32:20;95682.97;;;-0.99;100.00
12219;BME280;6172;42.646;23.344;2023-01-25T03:34:47;95691.63;;;-1.11;100.00
12219;BME280;6172;42.646;23.344;2023-01-25T03:37:15;95694.63;;;-0.95;100.00
12219;BME280;6172;42.646;23.344;2023-01-25T03:39:42;95697.00;;;-0.85;100.00
12219;BME280;6172;42.646;23.344;2023-01-25T03:42:09;95690.03;;;-0.86;100.00
12219;BME280;6172;42.646;23.344;2023-01-25T03:44:36;95695.56;;;-1.25;100.00
12219;BME280;6172;42.646;23.344;2023-01-25T03:47:03;95692.75;;;-1.12;100.00
12219;BME280;6172;42.646;23.344;2023-01-25T03:49:31;95703.63;;;-1.08;100.00
12219;BME280;6172;42.646;23.344;2023-01-25T03:51:59;95685.66;;;-1.16;100.00
12219;BME280;6172;42.646;23.344;2023-01-25T03:54:26;95686.78;;;-1.09;100.00
12219;BME280;6172;42.646;23.344;2023-01-25T03:56:53;95688.66;;;-1.09;100.00
12219;BME280;6172;42.646;23.344;2023-01-25T03:59:20;95688.63;;;-1.01;100.00
12219;BME280;6172;42.646;23.344;2023-01-25T04:01:48;95679.81;;;-0.84;100.00
12219;BME280;6172;42.646;23.344;2023-01-25T04:04:15;95669.47;;;-1.03;100.00
12219;BME280;6172;42.646;23.344;2023-01-25T04:06:43;95685.63;;;-0.74;100.00
12219;BME280;6172;42.646;23.344;2023-01-25T04:09:10;95672.06;;;-0.69;100.00
12219;BME280;6172;42.646;23.344;2023-01-25T04:11:38;95678.50;;;-0.61;100.00
12219;BME280;6172;42.646;23.344;2023-01-25T04:14:05;95676.19;;;-0.71;100.00
12219;BME280;6172;42.646;23.344;2023-01-25T04:16:32;95681.09;;;-1.07;100.00
12219;BME280;6172;42.646;23.344;2023-01-25T04:19:00;95677.47;;;-0.86;100.00
12219;BME280;6172;42.646;23.344;2023-01-25T04:21:27;95676.00;;;-0.75;100.00
12219;BME280;6172;42.646;23.344;2023-01-25T04:23:55;95672.75;;;-0.97;100.00
12219;BME280;6172;42.646;23.344;2023-01-25T04:26:23;95664.28;;;-1.25;100.00
12219;BME280;6172;42.646;23.344;2023-01-25T04:28:51;95667.88;;;-1.38;100.00
12219;BME280;6172;42.646;23.344;2023-01-25T04:31:18;95680.00;;;-1.40;100.00
12219;BME280;6172;42.646;23.344;2023-01-25T04:33:45;95673.53;;;-1.22;100.00
12219;BME280;6172;42.646;23.344;2023-01-25T04:36:12;95682.53;;;-1.10;100.00
12219;BME280;6172;42.646;23.344;2023-01-25T04:38:39;95687.38;;;-1.03;100.00
12219;BME280;6172;42.646;23.344;2023-01-25T04:41:08;95685.97;;;-0.84;100.00
12219;BME280;6172;42.646;23.344;2023-01-25T04:43:35;95683.00;;;-1.42;100.00
12219;BME280;6172;42.646;23.344;2023-01-25T04:46:02;95688.03;;;-1.32;100.00
12219;BME280;6172;42.646;23.344;2023-01-25T04:48:31;95695.91;;;-1.01;100.00
12219;BME280;6172;42.646;23.344;2023-01-25T04:50:58;95678.22;;;-0.14;100.00
12219;BME280;6172;42.646;23.344;2023-01-25T04:53:25;95690.34;;;-0.88;100.00
12219;BME280;6172;42.646;23.344;2023-01-25T04:55:52;95686.44;;;-0.90;100.00
12219;BME280;6172;42.646;23.344;2023-01-25T04:58:20;95687.53;;;-0.74;100.00
12219;BME280;6172;42.646;23.344;2023-01-25T05:00:47;95689.94;;;-1.07;100.00
12219;BME280;6172;42.646;23.344;2023-01-25T05:03:15;95683.16;;;-1.30;100.00
12219;BME280;6172;42.646;23.344;2023-01-25T05:05:45;95685.97;;;-1.35;100.00
12219;BME280;6172;42.646;23.344;2023-01-25T05:08:12;95688.50;;;-1.38;100.00
12219;BME280;6172;42.646;23.344;2023-01-25T05:10:40;95680.81;;;-1.23;100.00
12219;BME280;6172;42.646;23.344;2023-01-25T05:13:07;95670.88;;;-1.14;100.00
12219;BME280;6172;42.646;23.344;2023-01-25T05:15:35;95670.88;;;-1.22;100.00
12219;BME280;6172;42.646;23.344;2023-01-25T05:18:03;95671.66;;;-1.30;100.00
12219;BME280;6172;42.646;23.344;2023-01-25T05:20:30;95664.75;;;-1.40;100.00
12219;BME280;6172;42.646;23.344;2023-01-25T05:22:57;95657.19;;;-1.46;100.00
12219;BME280;6172;42.646;23.344;2023-01-25T05:25:24;95669.31;;;-1.32;100.00
12219;BME280;6172;42.646;23.344;2023-01-25T05:28:08;95660.81;;;-1.17;100.00
12219;BME280;6172;42.646;23.344;2023-01-25T05:30:37;95672.28;;;-1.16;100.00
12219;BME280;6172;42.646;23.344;2023-01-25T05:33:04;95674.03;;;-1.12;100.00
12219;BME280;6172;42.646;23.344;2023-01-25T05:35:31;95660.03;;;-1.09;100.00
12219;BME280;6172;42.646;23.344;2023-01-25T05:37:59;95673.53;;;-1.39;100.00
12219;BME280;6172;42.646;23.344;2023-01-25T05:40:28;95659.09;;;-1.38;100.00
12219;BME280;6172;42.646;23.344;2023-01-25T05:42:55;95672.91;;;-1.28;100.00
12219;BME280;6172;42.646;23.344;2023-01-25T05:45:23;95677.63;;;-1.16;100.00
12219;BME280;6172;42.646;23.344;2023-01-25T05:47:56;95677.00;;;-1.13;100.00
12219;BME280;6172;42.646;23.344;2023-01-25T05:50:26;95678.13;;;-1.31;100.00
12219;BME280;6172;42.646;23.344;2023-01-25T05:52:53;95684.88;;;-1.25;100.00
12219;BME280;6172;42.646;23.344;2023-01-25T05:55:20;95676.22;;;-1.14;100.00
12219;BME280;6172;42.646;23.344;2023-01-25T05:57:47;95682.84;;;-1.03;100.00
12219;BME280;6172;42.646;23.344;2023-01-25T06:00:15;95682.69;;;-1.23;100.00
12219;BME280;6172;42.646;23.344;2023-01-25T06:02:42;95680.81;;;-1.31;100.00
12219;BME280;6172;42.646;23.344;2023-01-25T06:05:11;95677.19;;;-1.27;100.00
12219;BME280;6172;42.646;23.344;2023-01-25T06:07:40;95670.09;;;-1.48;100.00
12219;BME280;6172;42.646;23.344;2023-01-25T06:10:08;95685.84;;;-1.38;100.00
12219;BME280;6172;42.646;23.344;2023-01-25T06:12:35;95681.56;;;-1.39;100.00
12219;BME280;6172;42.646;23.344;2023-01-25T06:15:04;95692.13;;;-1.43;100.00
12219;BME280;6172;42.646;23.344;2023-01-25T06:17:32;95698.91;;;-1.20;100.00
12219;BME280;6172;42.646;23.344;2023-01-25T06:19:59;95692.13;;;-1.34;100.00
12219;BME280;6172;42.646;23.344;2023-01-25T06:22:28;95685.97;;;-1.60;100.00
12219;BME280;6172;42.646;23.344;2023-01-25T06:24:55;95696.22;;;-1.28;100.00
12219;BME280;6172;42.646;23.344;2023-01-25T06:27:22;95693.69;;;-1.16;100.00
12219;BME280;6172;42.646;23.344;2023-01-25T06:29:49;95695.09;;;-1.10;100.00
12219;BME280;6172;42.646;23.344;2023-01-25T06:32:16;95701.56;;;-0.94;100.00
12219;BME280;6172;42.646;23.344;2023-01-25T06:34:44;95678.13;;;-1.06;100.00
12219;BME280;6172;42.646;23.344;2023-01-25T06:37:11;95688.00;;;-0.98;100.00
12219;BME280;6172;42.646;23.344;2023-01-25T06:39:40;95696.84;;;-1.23;100.00
12219;BME280;6172;42.646;23.344;2023-01-25T06:42:07;95688.97;;;-1.19;100.00
12219;BME280;6172;42.646;23.344;2023-01-25T06:44:34;95678.75;;;-1.17;100.00
12219;BME280;6172;42.646;23.344;2023-01-25T06:47:07;95689.59;;;-1.39;100.00
12219;BME280;6172;42.646;23.344;2023-01-25T06:49:37;95691.50;;;-1.31;100.00
12219;BME280;6172;42.646;23.344;2023-01-25T06:52:05;95694.78;;;-1.17;100.00
12219;BME280;6172;42.646;23.344;2023-01-25T06:54:32;95688.97;;;-1.11;100.00
12219;BME280;6172;42.646;23.344;2023-01-25T06:57:01;95689.72;;;-0.85;100.00
12219;BME280;6172;42.646;23.344;2023-01-25T06:59:30;95685.16;;;-0.84;100.00
12219;BME280;6172;42.646;23.344;2023-01-25T07:01:57;95679.06;;;-1.02;100.00
12219;BME280;6172;42.646;23.344;2023-01-25T07:04:25;95688.47;;;-0.87;100.00
12219;BME280;6172;42.646;23.344;2023-01-25T07:06:52;95685.31;;;-0.72;100.00
12219;BME280;6172;42.646;23.344;2023-01-25T07:09:19;95681.25;;;-0.87;100.00
12219;BME280;6172;42.646;23.344;2023-01-25T07:11:51;95682.66;;;-0.89;100.00
12219;BME280;6172;42.646;23.344;2023-01-25T07:14:40;95685.03;;;-1.30;100.00
12219;BME280;6172;42.646;23.344;2023-01-25T07:17:20;95689.75;;;-1.36;100.00
12219;BME280;6172;42.646;23.344;2023-01-25T07:19:48;95692.13;;;-1.34;100.00
12219;BME280;6172;42.646;23.344;2023-01-25T07:22:15;95676.06;;;-1.60;100.00
12219;BME280;6172;42.646;23.344;2023-01-25T07:24:45;95686.28;;;-1.28;100.00
12219;BME280;6172;42.646;23.344;2023-01-25T07:27:19;95693.38;;;-1.32;100.00
12219;BME280;6172;42.646;23.344;2023-01-25T07:30:05;95707.38;;;-1.18;100.00
12219;BME280;6172;42.646;23.344;2023-01-25T07:32:40;95689.44;;;-1.34;100.00
12219;BME280;6172;42.646;23.344;2023-01-25T07:35:08;95699.34;;;-1.18;100.00
12219;BME280;6172;42.646;23.344;2023-01-25T07:37:35;95692.91;;;-1.00;100.00
12219;BME280;6172;42.646;23.344;2023-01-25T07:40:06;95698.88;;;-1.03;100.00
12219;BME280;6172;42.646;23.344;2023-01-25T07:42:35;95692.59;;;-0.90;100.00
12219;BME280;6172;42.646;23.344;2023-01-25T07:45:09;95697.00;;;-0.85;100.00
12219;BME280;6172;42.646;23.344;2023-01-25T07:47:44;95714.13;;;-0.86;100.00
12219;BME280;6172;42.646;23.344;2023-01-25T07:50:12;95694.63;;;-1.38;100.00
12219;BME280;6172;42.646;23.344;2023-01-25T07:52:41;95699.34;;;-1.43;100.00
12219;BME280;6172;42.646;23.344;2023-01-25T07:55:22;95710.34;;;-1.19;100.00
12219;BME280;6172;42.646;23.344;2023-01-25T07:57:53;95701.88;;;-1.21;100.00
12219;BME280;6172;42.646;23.344;2023-01-25T08:00:22;95708.00;;;-1.29;100.00
12219;BME280;6172;42.646;23.344;2023-01-25T08:02:50;95713.53;;;-1.17;100.00
12219;BME280;6172;42.646;23.344;2023-01-25T08:05:17;95709.28;;;-1.18;100.00
12219;BME280;6172;42.646;23.344;2023-01-25T08:07:45;95694.31;;;-1.19;100.00
12219;BME280;6172;42.646;23.344;2023-01-25T08:10:13;95689.44;;;-1.17;100.00
12219;BME280;6172;42.646;23.344;2023-01-25T08:12:44;95694.16;;;-0.97;100.00
12219;BME280;6172;42.646;23.344;2023-01-25T08:15:13;95705.81;;;-1.02;100.00
12219;BME280;6172;42.646;23.344;2023-01-25T08:17:43;95697.94;;;-1.07;100.00
12219;BME280;6172;42.646;23.344;2023-01-25T08:20:11;95710.69;;;-0.95;100.00
12219;BME280;6172;42.646;23.344;2023-01-25T08:22:38;95712.38;;;-0.82;100.00
12219;BME280;6172;42.646;23.344;2023-01-25T08:25:06;95703.56;;;-0.74;100.00
12219;BME280;6172;42.646;23.344;2023-01-25T08:27:33;95705.91;;;-0.56;100.00
12219;BME280;6172;42.646;23.344;2023-01-25T08:30:01;95694.56;;;-0.53;100.00
12219;BME280;6172;42.646;23.344;2023-01-25T08:32:28;95686.53;;;-0.53;100.00
12219;BME280;6172;42.646;23.344;2023-01-25T08:34:57;95703.81;;;-0.42;100.00
12219;BME280;6172;42.646;23.344;2023-01-25T08:37:24;95698.50;;;-0.59;100.00
12219;BME280;6172;42.646;23.344;2023-01-25T08:39:54;95684.84;;;-0.74;100.00
12219;BME280;6172;42.646;23.344;2023-01-25T08:42:22;95704.06;;;-0.72;100.00
12219;BME280;6172;42.646;23.344;2023-01-25T08:44:49;95696.47;;;-0.70;100.00
12219;BME280;6172;42.646;23.344;2023-01-25T08:47:16;95683.13;;;-0.79;100.00
12219;BME280;6172;42.646;23.344;2023-01-25T08:49:42;95686.41;;;-0.73;100.00
12219;BME280;6172;42.646;23.344;2023-01-25T08:52:11;95683.06;;;-0.53;100.00
12219;BME280;6172;42.646;23.344;2023-01-25T08:54:39;95679.16;;;-0.64;100.00
12219;BME280;6172;42.646;23.344;2023-01-25T08:57:08;95689.91;;;-0.81;100.00
12219;BME280;6172;42.646;23.344;2023-01-25T08:59:36;95684.25;;;-1.05;100.00
12219;BME280;6172;42.646;23.344;2023-01-25T09:02:07;95694.63;;;-0.78;100.00
12219;BME280;6172;42.646;23.344;2023-01-25T09:04:36;95693.66;;;-0.65;100.00
12219;BME280;6172;42.646;23.344;2023-01-25T09:07:04;95695.53;;;-0.74;100.00
12219;BME280;6172;42.646;23.344;2023-01-25T09:09:34;95692.22;;;-0.63;100.00
12219;BME280;6172;42.646;23.344;2023-01-25T09:12:08;95694.31;;;-0.77;100.00
12219;BME280;6172;42.646;23.344;2023-01-25T09:14:36;95692.25;;;-0.71;100.00
12219;BME280;6172;42.646;23.344;2023-01-25T09:17:14;95684.22;;;-0.80;100.00
12219;BME280;6172;42.646;23.344;2023-01-25T09:19:46;95680.41;;;-0.70;100.00
12219;BME280;6172;42.646;23.344;2023-01-25T09:22:14;95678.63;;;-0.41;100.00
12219;BME280;6172;42.646;23.344;2023-01-25T09:24:58;95684.88;;;-0.28;100.00
12219;BME280;6172;42.646;23.344;2023-01-25T09:27:25;95682.81;;;-0.23;100.00
12219;BME280;6172;42.646;23.344;2023-01-25T09:29:53;95674.78;;;-0.23;100.00
12219;BME280;6172;42.646;23.344;2023-01-25T09:32:20;95669.44;;;-0.31;100.00
12219;BME280;6172;42.646;23.344;2023-01-25T09:34:48;95671.94;;;-0.26;100.00
12219;BME280;6172;42.646;23.344;2023-01-25T09:37:16;95662.63;;;-0.20;100.00
12219;BME280;6172;42.646;23.344;2023-01-25T09:39:45;95650.66;;;-0.23;100.00
12219;BME280;6172;42.646;23.344;2023-01-25T09:42:45;95651.25;;;-0.17;100.00
12219;BME280;6172;42.646;23.344;2023-01-25T09:45:21;95641.69;;;-0.27;100.00
12219;BME280;6172;42.646;23.344;2023-01-25T09:47:55;95633.50;;;-0.30;100.00
12219;BME280;6172;42.646;23.344;2023-01-25T09:51:03;95646.47;;;-0.32;100.00
12219;BME280;6172;42.646;23.344;2023-01-25T09:53:48;95636.38;;;-0.35;100.00
12219;BME280;6172;42.646;23.344;2023-01-25T09:56:22;95633.84;;;-0.32;100.00
12219;BME280;6172;42.646;23.344;2023-01-25T09:58:56;95635.84;;;-0.20;100.00
12219;BME280;6172;42.646;23.344;2023-01-25T10:01:31;95632.28;;;-0.04;100.00
12219;BME280;6172;42.646;23.344;2023-01-25T10:04:04;95607.91;;;-0.11;100.00
12219;BME280;6172;42.646;23.344;2023-01-25T10:06:38;95612.41;;;-0.32;100.00
12219;BME280;6172;42.646;23.344;2023-01-25T10:09:23;95612.63;;;-0.16;100.00
12219;BME280;6172;42.646;23.344;2023-01-25T10:11:57;95604.81;;;-0.21;100.00
12219;BME280;6172;42.646;23.344;2023-01-25T10:14:25;95606.25;;;-0.03;100.00
12219;BME280;6172;42.646;23.344;2023-01-25T10:17:05;95577.78;;;-0.08;100.00
12219;BME280;6172;42.646;23.344;2023-01-25T10:19:53;95592.06;;;-0.24;100.00
12219;BME280;6172;42.646;23.344;2023-01-25T10:22:45;95585.31;;;-0.01;100.00
12219;BME280;6172;42.646;23.344;2023-01-25T10:25:23;95586.47;;;0.10;100.00
12219;BME280;6172;42.646;23.344;2023-01-25T10:28:06;95581.28;;;0.13;100.00
12219;BME280;6172;42.646;23.344;2023-01-25T10:30:38;95580.41;;;0.01;100.00
12219;BME280;6172;42.646;23.344;2023-01-25T10:33:11;95565.69;;;0.07;100.00
12219;BME280;6172;42.646;23.344;2023-01-25T10:35:43;95570.09;;;0.32;100.00
12219;BME280;6172;42.646;23.344;2023-01-25T10:38:14;95559.44;;;0.23;100.00
12219;BME280;6172;42.646;23.344;2023-01-25T10:40:47;95551.78;;;0.13;100.00
12219;BME280;6172;42.646;23.344;2023-01-25T10:43:20;95558.63;;;0.23;100.00
12219;BME280;6172;42.646;23.344;2023-01-25T10:45:48;95545.38;;;0.26;100.00
12219;BME280;6172;42.646;23.344;2023-01-25T10:48:20;95545.25;;;0.23;100.00
12219;BME280;6172;42.646;23.344;2023-01-25T10:50:53;95531.38;;;0.41;100.00
12219;BME280;6172;42.646;23.344;2023-01-25T10:53:23;95519.09;;;0.20;100.00
12219;BME280;6172;42.646;23.344;2023-01-25T10:55:57;95531.91;;;0.35;100.00
12219;BME280;6172;42.646;23.344;2023-01-25T10:58:36;95518.59;;;0.38;100.00
12219;BME280;6172;42.646;23.344;2023-01-25T11:01:06;95515.44;;;0.24;100.00
12219;BME280;6172;42.646;23.344;2023-01-25T11:03:35;95520.06;;;0.36;100.00
12219;BME280;6172;42.646;23.344;2023-01-25T11:06:04;95505.22;;;0.38;100.00
12219;BME280;6172;42.646;23.344;2023-01-25T11:08:35;95512.16;;;0.39;100.00
12219;BME280;6172;42.646;23.344;2023-01-25T11:11:23;95503.56;;;0.46;100.00
12219;BME280;6172;42.646;23.344;2023-01-25T11:13:53;95509.72;;;0.46;100.00
12219;BME280;6172;42.646;23.344;2023-01-25T11:16:32;95507.34;;;0.77;100.00
12219;BME280;6172;42.646;23.344;2023-01-25T11:19:00;95501.19;;;0.65;100.00
12219;BME280;6172;42.646;23.344;2023-01-25T11:21:30;95488.22;;;0.67;100.00
12219;BME280;6172;42.646;23.344;2023-01-25T11:24:00;95486.31;;;0.67;100.00
12219;BME280;6172;42.646;23.344;2023-01-25T11:26:29;95479.16;;;0.71;100.00
12219;BME280;6172;42.646;23.344;2023-01-25T11:29:13;95491.91;;;0.74;100.00
12219;BME280;6172;42.646;23.344;2023-01-25T11:31:43;95484.19;;;0.73;100.00
12219;BME280;6172;42.646;23.344;2023-01-25T11:34:16;95478.81;;;0.61;100.00
12219;BME280;6172;42.646;23.344;2023-01-25T11:39:54;95472.56;;;0.69;100.00
12219;BME280;6172;42.646;23.344;2023-01-25T11:42:32;95465.50;;;0.52;100.00
12219;BME280;6172;42.646;23.344;2023-01-25T11:45:29;95464.31;;;0.41;100.00
12219;BME280;6172;42.646;23.344;2023-01-25T11:48:10;95455.78;;;0.60;100.00
12219;BME280;6172;42.646;23.344;2023-01-25T11:50:44;95446.88;;;0.68;100.00
12219;BME280;6172;42.646;23.344;2023-01-25T11:53:30;95447.22;;;0.78;100.00
12219;BME280;6172;42.646;23.344;2023-01-25T11:56:06;95437.50;;;0.74;100.00
12219;BME280;6172;42.646;23.344;2023-01-25T11:58:52;95428.66;;;0.73;100.00
12219;BME280;6172;42.646;23.344;2023-01-25T12:01:41;95440.72;;;0.67;100.00
12219;BME280;6172;42.646;23.344;2023-01-25T12:04:45;95431.66;;;0.72;100.00
12219;BME280;6172;42.646;23.344;2023-01-25T12:07:29;95435.03;;;0.81;100.00
12219;BME280;6172;42.646;23.344;2023-01-25T12:10:14;95422.50;;;0.73;100.00
12219;BME280;6172;42.646;23.344;2023-01-25T12:12:48;95427.00;;;0.81;100.00
12219;BME280;6172;42.646;23.344;2023-01-25T12:18:28;95411.81;;;0.40;100.00
12219;BME280;6172;42.646;23.344;2023-01-25T12:21:09;95420.56;;;0.61;100.00
12219;BME280;6172;42.646;23.344;2023-01-25T12:23:56;95417.59;;;0.75;100.00
12219;BME280;6172;42.646;23.344;2023-01-25T12:26:32;95409.28;;;0.44;100.00
12219;BME280;6172;42.646;23.344;2023-01-25T12:29:18;95417.78;;;0.58;100.00
12219;BME280;6172;42.646;23.344;2023-01-25T12:31:54;95423.34;;;0.41;100.00
12219;BME280;6172;42.646;23.344;2023-01-25T12:34:31;95410.47;;;0.34;100.00
12219;BME280;6172;42.646;23.344;2023-01-25T12:37:06;95417.97;;;0.41;100.00
12219;BME280;6172;42.646;23.344;2023-01-25T12:39:40;95400.50;;;0.23;100.00
12219;BME280;6172;42.646;23.344;2023-01-25T12:42:17;95420.03;;;0.23;100.00
12219;BME280;6172;42.646;23.344;2023-01-25T12:44:49;95398.97;;;0.34;100.00
12219;BME280;6172;42.646;23.344;2023-01-25T12:47:27;95416.19;;;0.45;100.00
12219;BME280;6172;42.646;23.344;2023-01-25T12:50:03;95408.94;;;0.57;100.00
12219;BME280;6172;42.646;23.344;2023-01-25T12:52:34;95401.19;;;0.32;100.00
12219;BME280;6172;42.646;23.344;2023-01-25T12:55:05;95396.84;;;0.39;100.00
12219;BME280;6172;42.646;23.344;2023-01-25T12:57:42;95413.75;;;0.52;100.00
12219;BME280;6172;42.646;23.344;2023-01-25T13:00:20;95406.84;;;0.63;100.00
12219;BME280;6172;42.646;23.344;2023-01-25T13:03:07;95402.50;;;0.70;100.00
12219;BME280;6172;42.646;23.344;2023-01-25T13:05:47;95384.03;;;0.45;100.00
12219;BME280;6172;42.646;23.344;2023-01-25T13:08:36;95389.84;;;0.14;100.00
12219;BME280;6172;42.646;23.344;2023-01-25T13:11:19;95385.53;;;0.22;100.00
12219;BME280;6172;42.646;23.344;2023-01-25T13:13:49;95388.94;;;0.55;100.00
12219;BME280;6172;42.646;23.344;2023-01-25T13:16:32;95384.44;;;0.35;100.00
12219;BME280;6172;42.646;23.344;2023-01-25T13:19:00;95381.63;;;0.19;100.00